sensor_id;sensor_type;location;lat;lon;timestamp;P1;durP1;ratioP1;P2;durP2;ratioP2
12425;SDS011;6277;49.824;9.562;2022-08-19T00:01:09;10.52;;;9.43;;
12425;SDS011;6277;49.824;9.562;2022-08-19T00:03:35;9.95;;;8.63;;
12425;SDS011;6277;49.824;9.562;2022-08-19T00:06:00;10.07;;;9.05;;
12425;SDS011;6277;49.824;9.562;2022-08-19T00:08:26;9.95;;;8.90;;
12425;SDS011;6277;49.824;9.562;2022-08-19T00:10:51;9.80;;;8.60;;
12425;SDS011;6277;49.824;9.562;2022-08-19T00:13:17;9.85;;;8.73;;
12425;SDS011;6277;49.824;9.562;2022-08-19T00:15:43;9.45;;;8.32;;
12425;SDS011;6277;49.824;9.562;2022-08-19T00:18:09;9.82;;;8.80;;
12425;SDS011;6277;49.824;9.562;2022-08-19T00:20:35;10.23;;;9.10;;
12425;SDS011;6277;49.824;9.562;2022-08-19T00:23:05;9.50;;;8.50;;
12425;SDS011;6277;49.824;9.562;2022-08-19T00:25:31;9.88;;;8.77;;
12425;SDS011;6277;49.824;9.562;2022-08-19T00:27:57;9.70;;;8.70;;
12425;SDS011;6277;49.824;9.562;2022-08-19T00:30:23;10.25;;;9.02;;
12425;SDS011;6277;49.824;9.562;2022-08-19T00:32:49;10.02;;;9.00;;
12425;SDS011;6277;49.824;9.562;2022-08-19T00:35:15;10.07;;;8.95;;
12425;SDS011;6277;49.824;9.562;2022-08-19T00:37:41;10.90;;;8.70;;
12425;SDS011;6277;49.824;9.562;2022-08-19T00:40:08;10.73;;;9.02;;
12425;SDS011;6277;49.824;9.562;2022-08-19T00:42:35;10.13;;;9.02;;
12425;SDS011;6277;49.824;9.562;2022-08-19T00:45:01;9.95;;;8.93;;
12425;SDS011;6277;49.824;9.562;2022-08-19T00:47:26;9.05;;;8.10;;
12425;SDS011;6277;49.824;9.562;2022-08-19T00:49:54;10.23;;;8.70;;
12425;SDS011;6277;49.824;9.562;2022-08-19T00:52:32;10.20;;;9.07;;
12425;SDS011;6277;49.824;9.562;2022-08-19T00:54:59;9.85;;;8.27;;
12425;SDS011;6277;49.824;9.562;2022-08-19T00:57:28;9.23;;;8.23;;
12425;SDS011;6277;49.824;9.562;2022-08-19T00:59:59;9.18;;;8.23;;
12425;SDS011;6277;49.824;9.562;2022-08-19T01:02:27;9.10;;;8.02;;
12425;SDS011;6277;49.824;9.562;2022-08-19T01:04:54;8.48;;;7.57;;
12425;SDS011;6277;49.824;9.562;2022-08-19T01:07:20;7.75;;;6.95;;
12425;SDS011;6277;49.824;9.562;2022-08-19T01:09:46;7.32;;;6.55;;
12425;SDS011;6277;49.824;9.562;2022-08-19T01:12:12;9.82;;;7.68;;
12425;SDS011;6277;49.824;9.562;2022-08-19T01:14:38;7.70;;;6.88;;
12425;SDS011;6277;49.824;9.562;2022-08-19T01:17:04;7.78;;;6.93;;
12425;SDS011;6277;49.824;9.562;2022-08-19T01:19:34;9.02;;;7.07;;
12425;SDS011;6277;49.824;9.562;2022-08-19T01:22:08;8.50;;;7.60;;
12425;SDS011;6277;49.824;9.562;2022-08-19T01:24:42;9.15;;;7.95;;
12425;SDS011;6277;49.824;9.562;2022-08-19T01:27:08;8.55;;;7.65;;
12425;SDS011;6277;49.824;9.562;2022-08-19T01:29:34;9.23;;;8.13;;
12425;SDS011;6277;49.824;9.562;2022-08-19T01:32:04;9.65;;;8.43;;
12425;SDS011;6277;49.824;9.562;2022-08-19T01:34:30;8.95;;;8.02;;
12425;SDS011;6277;49.824;9.562;2022-08-19T01:36:56;9.93;;;8.93;;
12425;SDS011;6277;49.824;9.562;2022-08-19T01:39:23;8.82;;;7.72;;
12425;SDS011;6277;49.824;9.562;2022-08-19T01:41:50;9.38;;;8.38;;
12425;SDS011;6277;49.824;9.562;2022-08-19T01:44:19;10.07;;;8.90;;
12425;SDS011;6277;49.824;9.562;2022-08-19T01:46:49;10.05;;;8.70;;
12425;SDS011;6277;49.824;9.562;2022-08-19T01:49:18;10.43;;;8.63;;
12425;SDS011;6277;49.824;9.562;2022-08-19T01:51:45;9.00;;;8.10;;
12425;SDS011;6277;49.824;9.562;2022-08-19T01:54:12;9.60;;;8.63;;
12425;SDS011;6277;49.824;9.562;2022-08-19T01:56:40;9.93;;;8.93;;
12425;SDS011;6277;49.824;9.562;2022-08-19T01:59:10;8.80;;;7.50;;
12425;SDS011;6277;49.824;9.562;2022-08-19T02:01:38;9.77;;;8.73;;
12425;SDS011;6277;49.824;9.562;2022-08-19T02:04:03;9.25;;;8.18;;
12425;SDS011;6277;49.824;9.562;2022-08-19T02:06:30;9.20;;;8.23;;
12425;SDS011;6277;49.824;9.562;2022-08-19T02:08:56;8.40;;;7.60;;
12425;SDS011;6277;49.824;9.562;2022-08-19T02:11:24;9.13;;;7.93;;
12425;SDS011;6277;49.824;9.562;2022-08-19T02:13:53;8.55;;;7.65;;
12425;SDS011;6277;49.824;9.562;2022-08-19T02:16:20;8.95;;;8.05;;
12425;SDS011;6277;49.824;9.562;2022-08-19T02:18:46;8.40;;;7.60;;
12425;SDS011;6277;49.824;9.562;2022-08-19T02:21:16;9.27;;;8.30;;
12425;SDS011;6277;49.824;9.562;2022-08-19T02:23:43;9.18;;;7.80;;
12425;SDS011;6277;49.824;9.562;2022-08-19T02:26:09;9.98;;;8.50;;
12425;SDS011;6277;49.824;9.562;2022-08-19T02:28:34;9.20;;;8.23;;
12425;SDS011;6277;49.824;9.562;2022-08-19T02:31:01;9.43;;;8.45;;
12425;SDS011;6277;49.824;9.562;2022-08-19T02:33:27;8.98;;;8.07;;
12425;SDS011;6277;49.824;9.562;2022-08-19T02:35:53;10.30;;;8.90;;
12425;SDS011;6277;49.824;9.562;2022-08-19T02:38:19;8.85;;;7.95;;
12425;SDS011;6277;49.824;9.562;2022-08-19T02:40:51;10.15;;;8.63;;
12425;SDS011;6277;49.824;9.562;2022-08-19T02:43:19;9.70;;;8.70;;
12425;SDS011;6277;49.824;9.562;2022-08-19T02:45:45;9.95;;;8.95;;
12425;SDS011;6277;49.824;9.562;2022-08-19T02:48:13;11.10;;;9.77;;
12425;SDS011;6277;49.824;9.562;2022-08-19T02:50:43;10.45;;;9.32;;
12425;SDS011;6277;49.824;9.562;2022-08-19T02:53:09;10.88;;;8.70;;
12425;SDS011;6277;49.824;9.562;2022-08-19T02:55:35;10.48;;;9.25;;
12425;SDS011;6277;49.824;9.562;2022-08-19T02:58:00;11.57;;;9.43;;
12425;SDS011;6277;49.824;9.562;2022-08-19T03:00:26;10.25;;;8.80;;
12425;SDS011;6277;49.824;9.562;2022-08-19T03:02:52;10.05;;;8.95;;
12425;SDS011;6277;49.824;9.562;2022-08-19T03:05:18;9.82;;;8.48;;
12425;SDS011;6277;49.824;9.562;2022-08-19T03:07:43;12.48;;;9.93;;
12425;SDS011;6277;49.824;9.562;2022-08-19T03:10:10;10.20;;;8.75;;
12425;SDS011;6277;49.824;9.562;2022-08-19T03:12:36;9.93;;;8.73;;
12425;SDS011;6277;49.824;9.562;2022-08-19T03:15:04;10.20;;;8.82;;
12425;SDS011;6277;49.824;9.562;2022-08-19T03:17:31;10.07;;;9.07;;
12425;SDS011;6277;49.824;9.562;2022-08-19T03:19:56;10.95;;;9.32;;
12425;SDS011;6277;49.824;9.562;2022-08-19T03:22:22;11.15;;;9.60;;
12425;SDS011;6277;49.824;9.562;2022-08-19T03:24:47;11.18;;;8.98;;
12425;SDS011;6277;49.824;9.562;2022-08-19T03:27:13;7.68;;;6.88;;
12425;SDS011;6277;49.824;9.562;2022-08-19T03:29:39;9.65;;;7.60;;
12425;SDS011;6277;49.824;9.562;2022-08-19T03:32:05;8.57;;;7.40;;
12425;SDS011;6277;49.824;9.562;2022-08-19T03:34:32;9.15;;;7.75;;
12425;SDS011;6277;49.824;9.562;2022-08-19T03:37:02;10.07;;;8.63;;
12425;SDS011;6277;49.824;9.562;2022-08-19T03:39:32;9.03;;;8.13;;
12425;SDS011;6277;49.824;9.562;2022-08-19T03:41:57;9.75;;;7.72;;
12425;SDS011;6277;49.824;9.562;2022-08-19T03:44:25;9.85;;;7.50;;
12425;SDS011;6277;49.824;9.562;2022-08-19T03:46:51;8.23;;;7.40;;
12425;SDS011;6277;49.824;9.562;2022-08-19T03:49:20;8.00;;;6.88;;
12425;SDS011;6277;49.824;9.562;2022-08-19T03:51:48;8.48;;;7.57;;
12425;SDS011;6277;49.824;9.562;2022-08-19T03:54:16;8.55;;;7.57;;
12425;SDS011;6277;49.824;9.562;2022-08-19T03:56:43;7.63;;;6.82;;
12425;SDS011;6277;49.824;9.562;2022-08-19T03:59:13;8.20;;;7.35;;
12425;SDS011;6277;49.824;9.562;2022-08-19T04:01:41;8.13;;;7.30;;
12425;SDS011;6277;49.824;9.562;2022-08-19T04:04:08;9.10;;;8.13;;
12425;SDS011;6277;49.824;9.562;2022-08-19T04:06:34;8.63;;;7.72;;
12425;SDS011;6277;49.824;9.562;2022-08-19T04:09:03;8.82;;;7.60;;
12425;SDS011;6277;49.824;9.562;2022-08-19T04:11:31;9.23;;;7.30;;
12425;SDS011;6277;49.824;9.562;2022-08-19T04:14:00;8.38;;;7.47;;
12425;SDS011;6277;49.824;9.562;2022-08-19T04:16:27;7.63;;;6.82;;
12425;SDS011;6277;49.824;9.562;2022-08-19T04:18:59;10.13;;;8.27;;
12425;SDS011;6277;49.824;9.562;2022-08-19T04:21:26;8.52;;;7.68;;
12425;SDS011;6277;49.824;9.562;2022-08-19T04:23:53;9.52;;;8.35;;
12425;SDS011;6277;49.824;9.562;2022-08-19T04:26:24;9.75;;;8.27;;
12425;SDS011;6277;49.824;9.562;2022-08-19T04:28:51;8.95;;;8.00;;
12425;SDS011;6277;49.824;9.562;2022-08-19T04:31:19;8.10;;;7.30;;
12425;SDS011;6277;49.824;9.562;2022-08-19T04:33:46;8.32;;;7.47;;
12425;SDS011;6277;49.824;9.562;2022-08-19T04:36:25;9.23;;;7.93;;
12425;SDS011;6277;49.824;9.562;2022-08-19T04:38:54;8.43;;;7.05;;
12425;SDS011;6277;49.824;9.562;2022-08-19T04:41:22;8.30;;;7.40;;
12425;SDS011;6277;49.824;9.562;2022-08-19T04:44:06;8.65;;;7.75;;
12425;SDS011;6277;49.824;9.562;2022-08-19T04:46:32;8.13;;;7.32;;
12425;SDS011;6277;49.824;9.562;2022-08-19T04:48:59;9.50;;;7.22;;
12425;SDS011;6277;49.824;9.562;2022-08-19T04:51:26;8.73;;;7.65;;
12425;SDS011;6277;49.824;9.562;2022-08-19T04:53:51;9.05;;;7.60;;
12425;SDS011;6277;49.824;9.562;2022-08-19T04:56:18;7.90;;;7.10;;
12425;SDS011;6277;49.824;9.562;2022-08-19T04:58:46;9.32;;;7.90;;
12425;SDS011;6277;49.824;9.562;2022-08-19T05:01:22;8.82;;;7.10;;
12425;SDS011;6277;49.824;9.562;2022-08-19T05:03:50;7.82;;;7.03;;
12425;SDS011;6277;49.824;9.562;2022-08-19T05:06:17;8.15;;;7.18;;
12425;SDS011;6277;49.824;9.562;2022-08-19T05:08:44;7.63;;;6.85;;
12425;SDS011;6277;49.824;9.562;2022-08-19T05:11:13;7.88;;;7.07;;
12425;SDS011;6277;49.824;9.562;2022-08-19T05:13:40;7.80;;;7.00;;
12425;SDS011;6277;49.824;9.562;2022-08-19T05:16:07;8.52;;;7.50;;
12425;SDS011;6277;49.824;9.562;2022-08-19T05:18:34;7.32;;;6.30;;
12425;SDS011;6277;49.824;9.562;2022-08-19T05:21:19;7.75;;;6.85;;
12425;SDS011;6277;49.824;9.562;2022-08-19T05:24:04;10.57;;;7.93;;
12425;SDS011;6277;49.824;9.562;2022-08-19T05:26:37;9.25;;;7.13;;
12425;SDS011;6277;49.824;9.562;2022-08-19T05:29:03;9.10;;;7.50;;
12425;SDS011;6277;49.824;9.562;2022-08-19T05:31:30;7.47;;;6.47;;
12425;SDS011;6277;49.824;9.562;2022-08-19T05:33:56;7.25;;;6.55;;
12425;SDS011;6277;49.824;9.562;2022-08-19T05:36:23;8.07;;;6.72;;
12425;SDS011;6277;49.824;9.562;2022-08-19T05:38:52;8.98;;;7.28;;
12425;SDS011;6277;49.824;9.562;2022-08-19T05:41:19;6.85;;;6.10;;
12425;SDS011;6277;49.824;9.562;2022-08-19T05:43:54;6.80;;;6.10;;
12425;SDS011;6277;49.824;9.562;2022-08-19T05:46:25;8.65;;;7.43;;
12425;SDS011;6277;49.824;9.562;2022-08-19T05:48:51;8.55;;;7.57;;
12425;SDS011;6277;49.824;9.562;2022-08-19T05:51:17;8.70;;;7.47;;
12425;SDS011;6277;49.824;9.562;2022-08-19T05:53:42;8.55;;;7.65;;
12425;SDS011;6277;49.824;9.562;2022-08-19T05:56:13;8.90;;;7.85;;
12425;SDS011;6277;49.824;9.562;2022-08-19T05:58:41;8.13;;;7.32;;
12425;SDS011;6277;49.824;9.562;2022-08-19T06:01:11;8.18;;;7.30;;
12425;SDS011;6277;49.824;9.562;2022-08-19T06:03:39;8.02;;;7.22;;
12425;SDS011;6277;49.824;9.562;2022-08-19T06:06:06;8.07;;;7.28;;
12425;SDS011;6277;49.824;9.562;2022-08-19T06:08:34;7.90;;;7.10;;
12425;SDS011;6277;49.824;9.562;2022-08-19T06:11:21;8.23;;;7.13;;
12425;SDS011;6277;49.824;9.562;2022-08-19T06:13:59;10.48;;;7.78;;
12425;SDS011;6277;49.824;9.562;2022-08-19T06:16:27;7.72;;;6.75;;
12425;SDS011;6277;49.824;9.562;2022-08-19T06:18:55;7.82;;;6.97;;
12425;SDS011;6277;49.824;9.562;2022-08-19T06:21:23;8.32;;;7.45;;
12425;SDS011;6277;49.824;9.562;2022-08-19T06:23:50;9.05;;;8.02;;
12425;SDS011;6277;49.824;9.562;2022-08-19T06:26:17;8.05;;;7.25;;
12425;SDS011;6277;49.824;9.562;2022-08-19T06:28:43;8.07;;;7.28;;
12425;SDS011;6277;49.824;9.562;2022-08-19T06:31:11;8.18;;;7.28;;
12425;SDS011;6277;49.824;9.562;2022-08-19T06:33:39;8.20;;;6.78;;
12425;SDS011;6277;49.824;9.562;2022-08-19T06:36:06;7.70;;;6.93;;
12425;SDS011;6277;49.824;9.562;2022-08-19T06:38:32;7.88;;;7.07;;
12425;SDS011;6277;49.824;9.562;2022-08-19T06:41:03;7.93;;;7.15;;
12425;SDS011;6277;49.824;9.562;2022-08-19T06:43:29;8.35;;;7.55;;
12425;SDS011;6277;49.824;9.562;2022-08-19T06:45:55;8.00;;;7.20;;
12425;SDS011;6277;49.824;9.562;2022-08-19T06:48:21;7.55;;;6.85;;
12425;SDS011;6277;49.824;9.562;2022-08-19T06:50:46;8.15;;;7.35;;
12425;SDS011;6277;49.824;9.562;2022-08-19T06:53:13;9.18;;;7.65;;
12425;SDS011;6277;49.824;9.562;2022-08-19T06:55:38;8.52;;;7.57;;
12425;SDS011;6277;49.824;9.562;2022-08-19T06:58:05;8.15;;;7.43;;
12425;SDS011;6277;49.824;9.562;2022-08-19T07:00:31;9.57;;;7.30;;
12425;SDS011;6277;49.824;9.562;2022-08-19T07:02:57;8.63;;;7.82;;
12425;SDS011;6277;49.824;9.562;2022-08-19T07:05:24;7.93;;;7.13;;
12425;SDS011;6277;49.824;9.562;2022-08-19T07:07:49;7.88;;;7.13;;
12425;SDS011;6277;49.824;9.562;2022-08-19T07:10:15;8.25;;;7.40;;
12425;SDS011;6277;49.824;9.562;2022-08-19T07:12:41;7.60;;;6.90;;
12425;SDS011;6277;49.824;9.562;2022-08-19T07:15:06;7.57;;;6.88;;
12425;SDS011;6277;49.824;9.562;2022-08-19T07:17:35;7.50;;;6.80;;
12425;SDS011;6277;49.824;9.562;2022-08-19T07:20:03;7.47;;;6.75;;
12425;SDS011;6277;49.824;9.562;2022-08-19T07:22:32;8.82;;;7.50;;
12425;SDS011;6277;49.824;9.562;2022-08-19T07:25:01;7.70;;;6.90;;
12425;SDS011;6277;49.824;9.562;2022-08-19T07:27:28;7.63;;;6.78;;
12425;SDS011;6277;49.824;9.562;2022-08-19T07:29:54;7.18;;;6.50;;
12425;SDS011;6277;49.824;9.562;2022-08-19T07:32:20;7.13;;;6.07;;
12425;SDS011;6277;49.824;9.562;2022-08-19T07:34:45;7.47;;;6.65;;
12425;SDS011;6277;49.824;9.562;2022-08-19T07:37:11;7.30;;;6.68;;
12425;SDS011;6277;49.824;9.562;2022-08-19T07:39:37;6.47;;;5.88;;
12425;SDS011;6277;49.824;9.562;2022-08-19T07:42:05;7.35;;;6.65;;
12425;SDS011;6277;49.824;9.562;2022-08-19T07:44:33;6.57;;;5.97;;
12425;SDS011;6277;49.824;9.562;2022-08-19T07:46:59;6.93;;;5.95;;
12425;SDS011;6277;49.824;9.562;2022-08-19T07:49:25;7.03;;;6.32;;
12425;SDS011;6277;49.824;9.562;2022-08-19T07:51:53;6.43;;;5.82;;
12425;SDS011;6277;49.824;9.562;2022-08-19T07:54:26;5.75;;;5.15;;
12425;SDS011;6277;49.824;9.562;2022-08-19T07:56:53;6.45;;;5.68;;
12425;SDS011;6277;49.824;9.562;2022-08-19T07:59:20;6.55;;;5.88;;
12425;SDS011;6277;49.824;9.562;2022-08-19T08:01:46;5.85;;;5.35;;
12425;SDS011;6277;49.824;9.562;2022-08-19T08:04:12;5.95;;;5.32;;
12425;SDS011;6277;49.824;9.562;2022-08-19T08:06:57;5.93;;;5.13;;
12425;SDS011;6277;49.824;9.562;2022-08-19T08:09:41;5.50;;;4.97;;
12425;SDS011;6277;49.824;9.562;2022-08-19T08:14:40;4.95;;;4.45;;
12425;SDS011;6277;49.824;9.562;2022-08-19T08:17:12;5.55;;;4.55;;
12425;SDS011;6277;49.824;9.562;2022-08-19T08:19:39;5.25;;;4.20;;
12425;SDS011;6277;49.824;9.562;2022-08-19T08:22:09;5.47;;;4.32;;
12425;SDS011;6277;49.824;9.562;2022-08-19T08:24:56;7.25;;;4.60;;
12425;SDS011;6277;49.824;9.562;2022-08-19T08:27:27;4.72;;;4.00;;
12425;SDS011;6277;49.824;9.562;2022-08-19T08:29:54;4.65;;;3.97;;
12425;SDS011;6277;49.824;9.562;2022-08-19T08:32:19;4.03;;;3.63;;
12425;SDS011;6277;49.824;9.562;2022-08-19T08:34:45;5.57;;;4.03;;
12425;SDS011;6277;49.824;9.562;2022-08-19T08:37:10;5.43;;;3.58;;
12425;SDS011;6277;49.824;9.562;2022-08-19T08:39:36;5.55;;;3.83;;
12425;SDS011;6277;49.824;9.562;2022-08-19T08:47:32;3.35;;;3.00;;
12425;SDS011;6277;49.824;9.562;2022-08-19T08:50:04;3.40;;;3.08;;
12425;SDS011;6277;49.824;9.562;2022-08-19T08:52:43;4.28;;;3.10;;
12425;SDS011;6277;49.824;9.562;2022-08-19T08:55:13;2.85;;;2.53;;
12425;SDS011;6277;49.824;9.562;2022-08-19T09:00:17;4.35;;;2.65;;
12425;SDS011;6277;49.824;9.562;2022-08-19T09:02:46;3.88;;;2.70;;
12425;SDS011;6277;49.824;9.562;2022-08-19T09:05:12;3.13;;;2.55;;
12425;SDS011;6277;49.824;9.562;2022-08-19T09:07:43;5.95;;;2.83;;
12425;SDS011;6277;49.824;9.562;2022-08-19T09:12:53;3.25;;;2.50;;
12425;SDS011;6277;49.824;9.562;2022-08-19T09:15:48;2.47;;;2.28;;
12425;SDS011;6277;49.824;9.562;2022-08-19T09:18:19;2.55;;;2.28;;
12425;SDS011;6277;49.824;9.562;2022-08-19T09:20:44;3.13;;;2.00;;
12425;SDS011;6277;49.824;9.562;2022-08-19T09:23:12;2.28;;;2.08;;
12425;SDS011;6277;49.824;9.562;2022-08-19T09:25:37;2.47;;;2.20;;
12425;SDS011;6277;49.824;9.562;2022-08-19T09:28:05;2.38;;;2.10;;
12425;SDS011;6277;49.824;9.562;2022-08-19T09:30:32;3.22;;;2.38;;
12425;SDS011;6277;49.824;9.562;2022-08-19T09:32:59;3.28;;;2.88;;
12425;SDS011;6277;49.824;9.562;2022-08-19T09:35:27;3.10;;;2.80;;
12425;SDS011;6277;49.824;9.562;2022-08-19T09:37:55;3.42;;;3.13;;
12425;SDS011;6277;49.824;9.562;2022-08-19T09:40:22;3.45;;;3.15;;
12425;SDS011;6277;49.824;9.562;2022-08-19T09:42:47;4.13;;;3.47;;
12425;SDS011;6277;49.824;9.562;2022-08-19T09:45:17;3.85;;;3.47;;
12425;SDS011;6277;49.824;9.562;2022-08-19T09:47:45;4.32;;;3.47;;
12425;SDS011;6277;49.824;9.562;2022-08-19T09:50:11;4.03;;;3.03;;
12425;SDS011;6277;49.824;9.562;2022-08-19T09:52:37;3.80;;;3.13;;
12425;SDS011;6277;49.824;9.562;2022-08-19T09:55:04;3.22;;;2.92;;
12425;SDS011;6277;49.824;9.562;2022-08-19T09:57:33;3.60;;;3.17;;
12425;SDS011;6277;49.824;9.562;2022-08-19T09:59:59;3.20;;;2.90;;
12425;SDS011;6277;49.824;9.562;2022-08-19T10:02:25;3.60;;;2.63;;
12425;SDS011;6277;49.824;9.562;2022-08-19T10:04:51;2.90;;;2.47;;
12425;SDS011;6277;49.824;9.562;2022-08-19T10:07:36;4.82;;;2.80;;
12425;SDS011;6277;49.824;9.562;2022-08-19T10:10:03;3.15;;;2.47;;
12425;SDS011;6277;49.824;9.562;2022-08-19T10:12:30;2.42;;;2.15;;
12425;SDS011;6277;49.824;9.562;2022-08-19T10:14:55;2.28;;;2.08;;
12425;SDS011;6277;49.824;9.562;2022-08-19T10:17:21;3.45;;;2.47;;
12425;SDS011;6277;49.824;9.562;2022-08-19T10:19:47;2.40;;;2.20;;
12425;SDS011;6277;49.824;9.562;2022-08-19T10:22:12;3.97;;;2.30;;
12425;SDS011;6277;49.824;9.562;2022-08-19T10:24:38;2.83;;;2.15;;
12425;SDS011;6277;49.824;9.562;2022-08-19T10:27:04;2.60;;;2.20;;
12425;SDS011;6277;49.824;9.562;2022-08-19T10:29:39;2.90;;;2.00;;
12425;SDS011;6277;49.824;9.562;2022-08-19T10:32:06;3.20;;;2.15;;
12425;SDS011;6277;49.824;9.562;2022-08-19T10:34:33;2.63;;;2.17;;
12425;SDS011;6277;49.824;9.562;2022-08-19T10:37:00;2.00;;;1.67;;
12425;SDS011;6277;49.824;9.562;2022-08-19T10:39:30;7.60;;;2.13;;
12425;SDS011;6277;49.824;9.562;2022-08-19T10:41:57;2.20;;;1.92;;
12425;SDS011;6277;49.824;9.562;2022-08-19T10:44:23;2.17;;;1.98;;
12425;SDS011;6277;49.824;9.562;2022-08-19T10:46:49;2.25;;;1.85;;
12425;SDS011;6277;49.824;9.562;2022-08-19T10:49:14;2.17;;;1.85;;
12425;SDS011;6277;49.824;9.562;2022-08-19T10:51:40;2.05;;;1.85;;
12425;SDS011;6277;49.824;9.562;2022-08-19T10:54:25;1.90;;;1.70;;
12425;SDS011;6277;49.824;9.562;2022-08-19T10:57:11;2.03;;;1.73;;
12425;SDS011;6277;49.824;9.562;2022-08-19T10:59:37;1.77;;;1.58;;
12425;SDS011;6277;49.824;9.562;2022-08-19T11:02:05;1.58;;;1.48;;
12425;SDS011;6277;49.824;9.562;2022-08-19T11:04:34;1.70;;;1.45;;
12425;SDS011;6277;49.824;9.562;2022-08-19T11:07:00;1.27;;;1.17;;
12425;SDS011;6277;49.824;9.562;2022-08-19T11:09:26;2.30;;;1.30;;
12425;SDS011;6277;49.824;9.562;2022-08-19T11:11:52;1.73;;;1.40;;
12425;SDS011;6277;49.824;9.562;2022-08-19T11:14:19;1.88;;;1.33;;
12425;SDS011;6277;49.824;9.562;2022-08-19T11:16:46;1.30;;;1.20;;
12425;SDS011;6277;49.824;9.562;2022-08-19T11:19:13;1.40;;;1.30;;
12425;SDS011;6277;49.824;9.562;2022-08-19T11:21:42;1.40;;;1.30;;
12425;SDS011;6277;49.824;9.562;2022-08-19T11:24:10;1.40;;;1.30;;
12425;SDS011;6277;49.824;9.562;2022-08-19T11:26:38;1.70;;;1.15;;
12425;SDS011;6277;49.824;9.562;2022-08-19T11:29:05;1.40;;;1.30;;
12425;SDS011;6277;49.824;9.562;2022-08-19T11:31:36;1.40;;;1.30;;
12425;SDS011;6277;49.824;9.562;2022-08-19T11:34:05;1.77;;;1.15;;
12425;SDS011;6277;49.824;9.562;2022-08-19T11:36:33;1.50;;;1.27;;
12425;SDS011;6277;49.824;9.562;2022-08-19T11:39:03;1.80;;;1.17;;
12425;SDS011;6277;49.824;9.562;2022-08-19T11:41:30;1.08;;;0.98;;
12425;SDS011;6277;49.824;9.562;2022-08-19T11:43:56;2.30;;;1.40;;
12425;SDS011;6277;49.824;9.562;2022-08-19T11:46:23;1.27;;;1.17;;
12425;SDS011;6277;49.824;9.562;2022-08-19T11:48:50;1.60;;;1.20;;
12425;SDS011;6277;49.824;9.562;2022-08-19T11:51:19;2.35;;;1.23;;
12425;SDS011;6277;49.824;9.562;2022-08-19T11:53:52;2.50;;;1.20;;
12425;SDS011;6277;49.824;9.562;2022-08-19T11:56:21;1.60;;;1.30;;
12425;SDS011;6277;49.824;9.562;2022-08-19T11:58:47;1.20;;;1.10;;
12425;SDS011;6277;49.824;9.562;2022-08-19T12:01:15;1.60;;;1.13;;
12425;SDS011;6277;49.824;9.562;2022-08-19T12:03:42;1.38;;;1.27;;
12425;SDS011;6277;49.824;9.562;2022-08-19T12:06:12;1.55;;;1.30;;
12425;SDS011;6277;49.824;9.562;2022-08-19T12:08:43;1.50;;;1.00;;
12425;SDS011;6277;49.824;9.562;2022-08-19T12:11:10;1.70;;;1.20;;
12425;SDS011;6277;49.824;9.562;2022-08-19T12:13:37;1.20;;;1.10;;
12425;SDS011;6277;49.824;9.562;2022-08-19T12:16:07;1.15;;;1.00;;
12425;SDS011;6277;49.824;9.562;2022-08-19T12:18:36;1.17;;;1.08;;
12425;SDS011;6277;49.824;9.562;2022-08-19T12:21:02;1.38;;;1.27;;
12425;SDS011;6277;49.824;9.562;2022-08-19T12:23:28;1.00;;;1.00;;
12425;SDS011;6277;49.824;9.562;2022-08-19T12:25:54;1.15;;;1.05;;
12425;SDS011;6277;49.824;9.562;2022-08-19T12:28:23;1.33;;;1.02;;
12425;SDS011;6277;49.824;9.562;2022-08-19T12:30:49;1.75;;;0.90;;
12425;SDS011;6277;49.824;9.562;2022-08-19T12:33:16;0.90;;;0.80;;
12425;SDS011;6277;49.824;9.562;2022-08-19T12:35:43;0.98;;;0.95;;
12425;SDS011;6277;49.824;9.562;2022-08-19T12:38:11;1.10;;;0.90;;
12425;SDS011;6277;49.824;9.562;2022-08-19T12:40:37;0.80;;;0.80;;
12425;SDS011;6277;49.824;9.562;2022-08-19T12:43:04;1.15;;;1.10;;
12425;SDS011;6277;49.824;9.562;2022-08-19T12:45:31;1.10;;;0.93;;
12425;SDS011;6277;49.824;9.562;2022-08-19T12:47:56;1.92;;;0.90;;
12425;SDS011;6277;49.824;9.562;2022-08-19T12:50:22;0.80;;;0.80;;
12425;SDS011;6277;49.824;9.562;2022-08-19T12:52:48;0.75;;;0.75;;
12425;SDS011;6277;49.824;9.562;2022-08-19T12:55:14;0.93;;;0.90;;
12425;SDS011;6277;49.824;9.562;2022-08-19T12:57:39;0.85;;;0.82;;
12425;SDS011;6277;49.824;9.562;2022-08-19T13:00:10;1.10;;;0.95;;
12425;SDS011;6277;49.824;9.562;2022-08-19T13:02:39;0.82;;;0.82;;
12425;SDS011;6277;49.824;9.562;2022-08-19T13:05:09;0.80;;;0.80;;
12425;SDS011;6277;49.824;9.562;2022-08-19T13:07:37;1.25;;;1.05;;
12425;SDS011;6277;49.824;9.562;2022-08-19T13:10:06;1.10;;;0.95;;
12425;SDS011;6277;49.824;9.562;2022-08-19T13:12:33;1.00;;;0.75;;
12425;SDS011;6277;49.824;9.562;2022-08-19T13:14:59;1.02;;;0.93;;
12425;SDS011;6277;49.824;9.562;2022-08-19T13:17:25;1.20;;;0.88;;
12425;SDS011;6277;49.824;9.562;2022-08-19T13:19:50;0.85;;;0.70;;
12425;SDS011;6277;49.824;9.562;2022-08-19T13:22:16;0.85;;;0.80;;
12425;SDS011;6277;49.824;9.562;2022-08-19T13:24:42;1.10;;;1.00;;
12425;SDS011;6277;49.824;9.562;2022-08-19T13:27:08;1.15;;;0.70;;
12425;SDS011;6277;49.824;9.562;2022-08-19T13:29:33;1.20;;;0.80;;
12425;SDS011;6277;49.824;9.562;2022-08-19T13:32:18;1.77;;;0.80;;
12425;SDS011;6277;49.824;9.562;2022-08-19T13:35:03;1.20;;;1.10;;
12425;SDS011;6277;49.824;9.562;2022-08-19T13:37:29;1.20;;;0.85;;
12425;SDS011;6277;49.824;9.562;2022-08-19T13:40:08;1.10;;;1.00;;
12425;SDS011;6277;49.824;9.562;2022-08-19T13:42:37;1.58;;;0.82;;
12425;SDS011;6277;49.824;9.562;2022-08-19T13:45:04;1.33;;;0.90;;
12425;SDS011;6277;49.824;9.562;2022-08-19T13:47:31;3.10;;;1.05;;
12425;SDS011;6277;49.824;9.562;2022-08-19T13:49:59;1.63;;;0.90;;
12425;SDS011;6277;49.824;9.562;2022-08-19T13:52:25;1.10;;;1.00;;
12425;SDS011;6277;49.824;9.562;2022-08-19T13:54:50;1.10;;;1.00;;
12425;SDS011;6277;49.824;9.562;2022-08-19T13:57:16;1.10;;;1.00;;
12425;SDS011;6277;49.824;9.562;2022-08-19T13:59:42;0.88;;;0.82;;
12425;SDS011;6277;49.824;9.562;2022-08-19T14:02:07;1.05;;;0.95;;
12425;SDS011;6277;49.824;9.562;2022-08-19T14:04:33;1.20;;;1.00;;
12425;SDS011;6277;49.824;9.562;2022-08-19T14:06:58;1.45;;;1.00;;
12425;SDS011;6277;49.824;9.562;2022-08-19T14:09:24;1.92;;;1.13;;
12425;SDS011;6277;49.824;9.562;2022-08-19T14:11:49;1.10;;;1.00;;
12425;SDS011;6277;49.824;9.562;2022-08-19T14:14:16;1.15;;;1.00;;
12425;SDS011;6277;49.824;9.562;2022-08-19T14:16:42;1.05;;;1.05;;
12425;SDS011;6277;49.824;9.562;2022-08-19T14:19:07;0.93;;;0.88;;
12425;SDS011;6277;49.824;9.562;2022-08-19T14:21:33;0.93;;;0.70;;
12425;SDS011;6277;49.824;9.562;2022-08-19T14:23:59;0.90;;;0.85;;
12425;SDS011;6277;49.824;9.562;2022-08-19T14:26:26;0.75;;;0.75;;
12425;SDS011;6277;49.824;9.562;2022-08-19T14:28:51;1.17;;;0.90;;
12425;SDS011;6277;49.824;9.562;2022-08-19T14:31:17;0.95;;;0.90;;
12425;SDS011;6277;49.824;9.562;2022-08-19T14:33:44;1.00;;;0.90;;
12425;SDS011;6277;49.824;9.562;2022-08-19T14:36:11;0.80;;;0.80;;
12425;SDS011;6277;49.824;9.562;2022-08-19T14:38:37;1.20;;;0.73;;
12425;SDS011;6277;49.824;9.562;2022-08-19T14:41:16;3.88;;;0.90;;
12425;SDS011;6277;49.824;9.562;2022-08-19T14:46:17;2.75;;;0.90;;
12425;SDS011;6277;49.824;9.562;2022-08-19T14:48:46;1.10;;;0.90;;
12425;SDS011;6277;49.824;9.562;2022-08-19T14:51:12;0.80;;;0.80;;
12425;SDS011;6277;49.824;9.562;2022-08-19T14:53:39;1.15;;;0.80;;
12425;SDS011;6277;49.824;9.562;2022-08-19T14:56:09;1.75;;;1.02;;
12425;SDS011;6277;49.824;9.562;2022-08-19T14:58:39;1.25;;;0.80;;
12425;SDS011;6277;49.824;9.562;2022-08-19T15:01:09;1.58;;;0.80;;
12425;SDS011;6277;49.824;9.562;2022-08-19T15:03:35;1.20;;;1.02;;
12425;SDS011;6277;49.824;9.562;2022-08-19T15:06:01;2.40;;;1.10;;
12425;SDS011;6277;49.824;9.562;2022-08-19T15:08:29;1.17;;;1.00;;
12425;SDS011;6277;49.824;9.562;2022-08-19T15:10:56;1.20;;;1.10;;
12425;SDS011;6277;49.824;9.562;2022-08-19T15:13:23;1.02;;;0.98;;
12425;SDS011;6277;49.824;9.562;2022-08-19T15:15:49;1.58;;;1.17;;
12425;SDS011;6277;49.824;9.562;2022-08-19T15:18:16;1.42;;;1.20;;
12425;SDS011;6277;49.824;9.562;2022-08-19T15:20:42;1.33;;;1.20;;